Time;durP1;ratioP1;P1;durP2;ratioP2;P2;SDS_P1;SDS_P2;PMS_P1;PMS_P2;Temp;Humidity;BMP_temperature;BMP_pressure;BME280_temperature;BME280_humidity;BME280_pressure;Samples;Min_cycle;Max_cycle;Signal;HPM_P1;HPM_P2
2023/06/29 00:02:10;;;;;;;3.95;1.88;;;13.60;99.90;;;;;;20979088;28;20868;-49
2023/06/29 00:12:12;;;;;;;1.63;1.20;;;13.40;99.90;;;;;;20985601;28;20068;-44
2023/06/29 00:22:14;;;;;;;1.25;0.90;;;13.30;99.90;;;;;;20985680;28;20115;-54
2023/06/29 00:32:16;;;;;;;1.63;0.70;;;13.30;99.90;;;;;;21004142;28;20086;-47
2023/06/29 00:42:19;;;;;;;1.30;0.63;;;13.00;99.90;;;;;;21003584;28;20068;-54
2023/06/29 00:52:22;;;;;;;1.88;0.95;;;12.70;99.90;;;;;;21039558;28;20068;-52
2023/06/29 01:02:23;;;;;;;1.33;0.80;;;12.70;99.90;;;;;;21036719;28;20457;-49
2023/06/29 01:12:26;;;;;;;1.05;0.77;;;12.60;99.90;;;;;;21049323;28;20059;-52
2023/06/29 01:22:32;;;;;;;1.00;0.80;;;12.70;99.90;;;;;;21005100;28;20113;-51
2023/06/29 01:32:35;;;;;;;0.85;0.60;;;12.70;99.90;;;;;;21013445;28;20502;-48
2023/06/29 01:42:38;;;;;;;0.75;0.50;;;12.70;99.90;;;;;;21023017;28;20134;-45
2023/06/29 01:52:44;;;;;;;1.00;0.50;;;12.70;99.90;;;;;;21023011;28;20075;-51
2023/06/29 02:02:45;;;;;;;2.90;0.65;;;12.80;99.90;;;;;;21026446;28;20067;-54
2023/06/29 02:12:47;;;;;;;2.55;0.50;;;12.80;99.90;;;;;;21022909;28;20067;-52
2023/06/29 02:22:50;;;;;;;0.80;0.50;;;12.80;99.90;;;;;;21018311;28;20114;-51
2023/06/29 02:32:51;;;;;;;1.40;0.75;;;12.60;99.90;;;;;;21006966;28;20120;-45
2023/06/29 02:42:53;;;;;;;1.17;0.70;;;12.60;99.90;;;;;;21028004;28;20076;-54
2023/06/29 02:52:54;;;;;;;2.15;0.50;;;12.70;99.90;;;;;;21009491;28;20072;-51
2023/06/29 03:02:56;;;;;;;0.88;0.50;;;12.70;99.90;;;;;;21014999;28;20072;-52
2023/06/29 03:12:58;;;;;;;0.90;0.52;;;12.70;99.90;;;;;;20998872;28;20072;-56
2023/06/29 03:22:59;;;;;;;1.65;0.60;;;12.80;99.90;;;;;;21005282;28;20064;-51
2023/06/29 03:33:01;;;;;;;1.15;0.60;;;12.80;99.90;;;;;;21030503;28;20108;-45
2023/06/29 03:43:03;;;;;;;4.25;0.77;;;13.00;99.90;;;;;;21002041;28;20213;-49
2023/06/29 03:53:04;;;;;;;5.70;0.70;;;13.10;99.90;;;;;;21018543;28;20559;-50
2023/06/29 04:03:06;;;;;;;1.80;0.70;;;13.10;99.90;;;;;;21027500;28;20460;-50
2023/06/29 04:13:07;;;;;;;0.70;0.52;;;13.00;99.90;;;;;;21025569;28;20388;-51
2023/06/29 04:23:11;;;;;;;1.58;0.77;;;13.00;99.90;;;;;;21027896;28;20068;-50
2023/06/29 04:33:15;;;;;;;0.68;0.50;;;13.10;99.90;;;;;;21026463;28;20071;-50
2023/06/29 04:43:16;;;;;;;1.38;0.63;;;13.30;99.90;;;;;;21012224;28;20115;-53
2023/06/29 04:53:18;;;;;;;1.25;0.70;;;13.60;99.90;;;;;;21036153;28;20101;-48
2023/06/29 05:03:19;;;;;;;1.95;0.70;;;13.70;99.90;;;;;;21054640;28;20115;-52
2023/06/29 05:13:21;;;;;;;0.65;0.47;;;13.80;99.90;;;;;;21037385;28;20145;-46
2023/06/29 05:23:23;;;;;;;0.88;0.50;;;14.00;99.90;;;;;;21035229;28;20072;-46
2023/06/29 05:33:24;;;;;;;0.90;0.60;;;14.20;99.90;;;;;;21023717;28;20193;-51
2023/06/29 05:43:26;;;;;;;1.10;0.50;;;14.30;99.90;;;;;;21013409;28;20075;-45
2023/06/29 05:53:28;;;;;;;0.50;0.40;;;15.10;99.90;;;;;;21017535;28;20516;-45
2023/06/29 06:03:30;;;;;;;2.42;0.60;;;15.80;99.90;;;;;;21026084;28;20533;-51
2023/06/29 06:13:31;;;;;;;0.90;0.60;;;15.80;99.90;;;;;;21019521;28;20505;-50
2023/06/29 06:23:36;;;;;;;0.90;0.57;;;15.90;99.90;;;;;;21034052;28;20068;-55
2023/06/29 06:33:39;;;;;;;3.10;0.80;;;16.40;99.90;;;;;;21014380;28;20094;-56
2023/06/29 06:43:41;;;;;;;0.60;0.43;;;17.00;99.90;;;;;;21014005;28;20129;-53
2023/06/29 06:53:43;;;;;;;0.80;0.50;;;17.70;99.90;;;;;;20992585;28;20079;-55
2023/06/29 07:03:44;;;;;;;2.22;0.80;;;18.00;99.90;;;;;;21021644;28;20550;-50
2023/06/29 07:13:46;;;;;;;1.25;1.02;;;18.30;99.90;;;;;;21011318;28;20094;-54
2023/06/29 07:23:48;;;;;;;2.95;0.80;;;18.80;99.90;;;;;;21015971;28;20456;-54
2023/06/29 07:33:51;;;;;;;0.80;0.70;;;19.20;99.90;;;;;;21023899;28;20119;-51
2023/06/29 07:43:55;;;;;;;1.75;0.70;;;19.10;99.90;;;;;;21041138;28;20080;-48
2023/06/29 07:53:56;;;;;;;0.77;0.70;;;18.90;99.90;;;;;;21027690;28;20063;-53
2023/06/29 08:03:58;;;;;;;2.20;1.02;;;18.80;99.90;;;;;;21036940;28;20064;-53
2023/06/29 08:13:59;;;;;;;1.02;0.70;;;19.00;99.90;;;;;;21044854;28;20125;-49
2023/06/29 08:24:01;;;;;;;0.82;0.63;;;19.30;99.90;;;;;;21037560;28;20060;-52
2023/06/29 08:34:03;;;;;;;3.28;0.90;;;19.80;99.90;;;;;;21016141;28;20083;-49
2023/06/29 08:44:04;;;;;;;1.40;0.90;;;20.50;99.50;;;;;;21029124;28;20131;-55
2023/06/29 08:54:07;;;;;;;0.85;0.60;;;20.90;99.40;;;;;;21027541;28;20263;-56
2023/06/29 09:04:09;;;;;;;1.40;1.00;;;21.80;97.10;;;;;;21032745;28;20090;-58
2023/06/29 09:14:11;;;;;;;2.88;0.88;;;22.60;97.70;;;;;;21007446;28;20175;-54
2023/06/29 09:24:14;;;;;;;2.17;1.00;;;23.40;94.60;;;;;;21038885;28;20438;-56
2023/06/29 09:34:20;;;;;;;1.08;0.90;;;23.10;96.70;;;;;;21035807;28;20064;-56
2023/06/29 09:44:26;;;;;;;1.00;0.80;;;22.50;94.90;;;;;;21041283;28;20131;-55
2023/06/29 09:54:28;;;;;;;1.05;0.60;;;22.60;93.60;;;;;;21022770;28;20122;-57
2023/06/29 10:04:29;;;;;;;2.15;0.65;;;23.40;94.30;;;;;;20992042;28;20115;-55
2023/06/29 10:14:33;;;;;;;1.15;1.05;;;23.10;95.00;;;;;;21017162;28;20071;-56
2023/06/29 10:24:39;;;;;;;1.70;1.10;;;22.60;94.00;;;;;;21008397;28;20185;-55
2023/06/29 10:35:00;;;;;;;1.88;1.05;;;22.40;95.50;;;;;;21024056;28;20132;-55
2023/06/29 10:45:02;;;;;;;2.30;1.38;;;22.50;94.40;;;;;;21024747;28;20080;-57
2023/06/29 10:55:17;;;;;;;2.45;1.27;;;22.70;92.60;;;;;;20997979;28;20524;-55
2023/06/29 11:05:21;;;;;;;2.20;1.55;;;22.30;95.20;;;;;;21025577;28;20067;-53
2023/06/29 11:15:23;;;;;;;4.07;1.90;;;21.90;96.70;;;;;;21028648;28;20075;-57
2023/06/29 11:25:26;;;;;;;1.92;1.70;;;22.00;97.40;;;;;;21028084;28;20141;-48
2023/06/29 11:35:29;;;;;;;4.05;2.03;;;22.60;97.80;;;;;;21002020;28;20067;-56
2023/06/29 11:45:31;;;;;;;3.33;1.77;;;22.90;95.20;;;;;;21020359;28;20590;-55
2023/06/29 11:55:33;;;;;;;5.25;2.38;;;22.90;96.60;;;;;;21011650;28;20072;-50
2023/06/29 12:05:41;;;;;;;3.95;2.25;;;23.10;94.80;;;;;;21027287;28;20206;-56
2023/06/29 12:15:44;;;;;;;3.13;2.13;;;23.00;95.20;;;;;;21027638;28;20125;-51
2023/06/29 12:25:52;;;;;;;4.38;2.33;;;22.90;95.90;;;;;;21031961;28;20485;-51
2023/06/29 12:35:53;;;;;;;;;;;22.80;96.30;;;;;;21031995;28;20071;-54
2023/06/29 12:45:55;;;;;;;5.65;2.67;;;23.30;96.30;;;;;;21042152;28;20328;-53
2023/06/29 12:55:57;;;;;;;6.65;2.55;;;23.20;96.20;;;;;;21036467;28;20063;-50
2023/06/29 13:05:59;;;;;;;2.70;2.25;;;23.10;96.90;;;;;;21030406;28;20067;-54
2023/06/29 13:16:00;;;;;;;4.15;2.78;;;23.00;96.20;;;;;;21010369;28;20172;-53
2023/06/29 13:26:02;;;;;;;3.53;2.58;;;22.80;95.00;;;;;;21037146;28;20071;-52
2023/06/29 13:36:04;;;;;;;2.97;2.42;;;23.10;96.10;;;;;;21008358;28;20130;-46
2023/06/29 13:46:06;;;;;;;5.53;3.05;;;23.50;95.30;;;;;;21013295;28;20144;-45
2023/06/29 13:56:08;;;;;;;3.20;2.85;;;23.90;94.90;;;;;;21022337;28;20063;-53
2023/06/29 14:06:12;;;;;;;2.83;2.50;;;23.40;94.50;;;;;;21027606;28;20640;-53
2023/06/29 14:16:13;;;;;;;3.22;2.38;;;22.70;96.20;;;;;;21041052;28;20091;-54
2023/06/29 14:26:16;;;;;;;5.00;2.67;;;22.40;97.70;;;;;;21041763;28;20071;-55
2023/06/29 14:36:17;;;;;;;3.35;2.72;;;23.20;95.20;;;;;;21021391;28;20613;-54
2023/06/29 14:46:19;;;;;;;3.17;2.55;;;23.20;94.20;;;;;;21010561;28;20145;-55
2023/06/29 14:56:21;;;;;;;2.90;2.60;;;22.90;95.50;;;;;;21014139;28;20052;-52
2023/06/29 15:06:23;;;;;;;5.55;2.83;;;23.10;95.60;;;;;;21017786;28;20068;-54
2023/06/29 15:16:27;;;;;;;3.92;2.50;;;22.90;95.50;;;;;;21019322;28;20063;-54
2023/06/29 15:26:29;;;;;;;3.30;2.70;;;22.70;95.50;;;;;;21013204;28;20162;-53
2023/06/29 15:36:31;;;;;;;4.65;2.60;;;22.20;95.60;;;;;;21023526;28;20118;-54
2023/06/29 15:46:33;;;;;;;4.05;2.75;;;21.90;97.70;;;;;;21017481;28;20523;-53
2023/06/29 15:56:35;;;;;;;4.30;2.60;;;21.80;96.70;;;;;;21051037;28;20165;-53
2023/06/29 16:06:37;;;;;;;4.78;3.08;;;21.40;98.50;;;;;;21021081;28;20505;-50
2023/06/29 16:16:38;;;;;;;5.72;2.75;;;21.10;99.30;;;;;;21018400;28;20071;-54
2023/06/29 16:26:40;;;;;;;4.43;3.20;;;20.90;99.80;;;;;;21022521;28;20134;-47
2023/06/29 16:36:42;;;;;;;7.28;2.50;;;20.70;99.90;;;;;;21030086;28;20067;-53
2023/06/29 16:46:43;;;;;;;4.63;3.63;;;20.60;99.90;;;;;;21033317;28;20079;-49
2023/06/29 16:56:45;;;;;;;7.80;4.40;;;20.50;99.90;;;;;;21019065;28;20510;-49
2023/06/29 17:06:47;;;;;;;6.80;4.20;;;20.20;99.90;;;;;;21043082;28;20068;-49
2023/06/29 17:16:49;;;;;;;6.95;4.55;;;19.80;99.90;;;;;;21037117;28;20098;-51
2023/06/29 17:26:50;;;;;;;9.30;4.70;;;19.40;99.90;;;;;;21042439;28;20086;-51
2023/06/29 17:36:52;;;;;;;7.32;4.85;;;18.90;99.90;;;;;;21022451;28;20065;-50
2023/06/29 17:46:53;;;;;;;10.40;5.00;;;18.60;99.90;;;;;;21018120;28;20513;-51
2023/06/29 17:56:55;;;;;;;7.63;4.75;;;18.50;99.90;;;;;;21011883;28;20081;-50
2023/06/29 18:06:59;;;;;;;8.35;5.10;;;18.30;99.90;;;;;;21011388;28;20470;-52
2023/06/29 18:17:03;;;;;;;10.15;5.70;;;17.80;99.90;;;;;;21033484;28;20117;-49
2023/06/29 18:27:05;;;;;;;8.35;5.40;;;17.30;99.90;;;;;;21021846;28;20105;-51
2023/06/29 18:37:06;;;;;;;9.02;6.00;;;16.90;99.90;;;;;;21023642;28;20056;-53
2023/06/29 18:47:13;;;;;;;11.13;8.52;;;16.70;99.90;;;;;;21032119;28;20095;-51
2023/06/29 18:57:15;;;;;;;16.00;12.20;;;16.60;99.90;;;;;;21024129;28;20056;-50
2023/06/29 19:07:16;;;;;;;11.50;10.05;;;16.70;99.90;;;;;;21011706;28;20128;-44
2023/06/29 19:17:18;;;;;;;10.20;8.45;;;16.90;99.90;;;;;;20991460;28;20068;-49
2023/06/29 19:27:20;;;;;;;9.70;7.70;;;16.70;99.90;;;;;;21025860;28;20107;-49
2023/06/29 19:37:25;;;;;;;11.13;6.97;;;16.40;99.90;;;;;;21019190;28;20131;-46
2023/06/29 19:47:26;;;;;;;10.45;7.40;;;16.20;99.90;;;;;;21002534;28;20612;-49
2023/06/29 19:57:28;;;;;;;9.65;7.82;;;15.90;99.90;;;;;;21014365;28;20071;-51
2023/06/29 20:07:29;;;;;;;10.10;8.13;;;15.80;99.90;;;;;;21030007;28;20127;-47
2023/06/29 20:17:31;;;;;;;10.48;8.63;;;15.70;99.90;;;;;;21021671;28;20123;-49
2023/06/29 20:27:32;;;;;;;20.30;13.00;;;15.50;99.90;;;;;;21020514;28;20119;-50
2023/06/29 20:37:34;;;;;;;16.35;11.55;;;15.30;99.90;;;;;;21027469;28;20200;-53
2023/06/29 20:47:36;;;;;;;17.63;12.52;;;14.90;99.90;;;;;;21022748;28;20151;-45
2023/06/29 20:57:37;;;;;;;15.35;11.77;;;14.60;99.90;;;;;;21021591;28;20787;-46
2023/06/29 21:07:39;;;;;;;15.85;12.18;;;14.30;99.90;;;;;;21021064;28;20103;-51
2023/06/29 21:17:41;;;;;;;17.15;11.98;;;14.30;99.90;;;;;;21018259;28;20501;-50
2023/06/29 21:27:43;;;;;;;16.98;13.13;;;14.40;99.90;;;;;;21020489;28;20071;-53
2023/06/29 21:37:45;;;;;;;17.27;11.95;;;14.50;99.90;;;;;;21024188;28;20113;-44
2023/06/29 21:47:46;;;;;;;17.17;12.90;;;14.40;99.90;;;;;;21024074;28;20080;-50
2023/06/29 21:57:48;;;;;;;15.55;13.23;;;14.10;99.90;;;;;;21011795;28;20438;-51
2023/06/29 22:07:50;;;;;;;18.27;14.55;;;13.90;99.90;;;;;;21033841;28;20067;-52
2023/06/29 22:17:51;;;;;;;20.05;15.20;;;13.90;99.90;;;;;;21022644;28;20531;-52
2023/06/29 22:27:53;;;;;;;19.75;14.70;;;13.80;99.90;;;;;;20994412;28;20129;-52
2023/06/29 22:37:54;;;;;;;17.90;14.35;;;13.60;99.90;;;;;;21001256;28;20067;-51
2023/06/29 22:47:58;;;;;;;22.88;15.13;;;13.60;99.90;;;;;;21014563;28;20139;-50
2023/06/29 22:57:59;;;;;;;21.55;17.98;;;13.60;99.90;;;;;;20996015;28;20072;-54
2023/06/29 23:08:01;;;;;;;21.40;17.58;;;13.50;99.90;;;;;;21019535;28;20555;-50
2023/06/29 23:18:02;;;;;;;21.13;17.73;;;13.50;99.90;;;;;;20999817;28;20725;-50
2023/06/29 23:28:04;;;;;;;18.40;15.98;;;13.60;99.90;;;;;;21005547;28;20497;-50
2023/06/29 23:38:06;;;;;;;14.23;11.32;;;13.60;99.90;;;;;;21046539;28;20068;-44
2023/06/29 23:48:07;;;;;;;14.30;11.20;;;13.50;99.90;;;;;;21026655;28;20152;-49
2023/06/29 23:58:09;;;;;;;16.05;13.80;;;13.30;99.90;;;;;;20985019;28;20551;-45
